Terminal Aerodrome Forecast
Issued by NWS Brownsville, TX

Home | Current Version | Previous Version | Text Only | Print | Product List | Glossary On
Versions: 1 2 3 4 5 6 7 8 9 10 11 12 13 14 15 16 17 18 19 20 21 22 23 24
000
FTUS44 KBRO 201947 AAB
TAFMFE
TAF AMD
KMFE 201947Z 2020/2118 34005KT 5SM HZ SCT015
     FM210100 15006KT P6SM FEW050 BKN250
     FM210500 VRB03KT 2SM BR BKN250
     FM210700 VRB03KT 1/2SM FG OVC004
      TEMPO 2109/2113 1/4SM FG VV002
     FM211500 29004KT 5SM BR SKC=

USA.gov is the U.S. government's official web portal to all federal, state and local government web resources and services.